^^
Grace C. Lehan Memorial Weather Station Historical Data
Daily Summary for February 13, 2021 Units:  Metric    English   Both
Daily Weekly Monthly Yearly
  High: Low: Average:
Temperature: 4.3 °C -2.4 °C 1.9 °C
Dew Point: -1.3 °C -4.2 °C -2.3 °C
Humidity: 90% 63.4% 73%
Wind Speed: 3.4km/h 0km/h 0.2km/h
Wind Gust: 14.5km/h - -
Wind- - SW
Pressure: 1017.8 hPa 1011.1 hPa -
Precipitation: 0 mm    
 
 
Tabular Data for February 13, 2021
Time Temperature Dew Point Pressure Wind Wind Speed Wind Gust Humidity Rainfall Rate (Hourly) solar
00:04 1.4 °C -2.8 °C 1017.5 hPa Calm     73% 0 mm 0 W/m2
00:09 1.4 °C -2.8 °C 1017.5 hPa Calm     73% 0 mm 0 W/m2
00:14 1.4 °C -2.9 °C 1017.5 hPa Calm     73% 0 mm 0 W/m2
00:19 1.4 °C -2.9 °C 1017.5 hPa Calm     73.1% 0 mm 0 W/m2
00:24 1.4 °C -2.7 °C 1017.2 hPa Calm     74% 0 mm 0 W/m2
00:29 1.3 °C -2.8 °C 1017.2 hPa Calm     74% 0 mm 0 W/m2
00:34 1.3 °C -2.8 °C 1017.2 hPa Calm     74% 0 mm 0 W/m2
00:39 1.3 °C -2.8 °C 1017.2 hPa Calm     74% 0 mm 0 W/m2
00:44 1.3 °C -2.8 °C 1017.2 hPa Calm     74% 0 mm 0 W/m2
00:49 1.3 °C -2.8 °C 1017.5 hPa Calm     74% 0 mm 0 W/m2
00:54 1.3 °C -2.8 °C 1017.2 hPa Calm     74.1% 0 mm 0 W/m2
00:59 1.3 °C -2.7 °C 1017.2 hPa Calm     75% 0 mm 0 W/m2
01:04 1.3 °C -2.7 °C 1017.2 hPa Calm     75% 0 mm 0 W/m2
01:09 1.3 °C -2.7 °C 1017.2 hPa Calm     75% 0 mm 0 W/m2
01:14 1.2 °C -2.7 °C 1017.2 hPa Calm     75% 0 mm 0 W/m2
01:19 1.2 °C -2.6 °C 1017.2 hPa Calm     75.9% 0 mm 0 W/m2
01:24 1.2 °C -2.6 °C 1017.2 hPa Calm     76% 0 mm 0 W/m2
01:29 1.2 °C -2.6 °C 1017.2 hPa Calm     76% 0 mm 0 W/m2
01:34 1.1 °C -2.7 °C 1017.2 hPa Calm     76% 0 mm 0 W/m2
01:39 1.1 °C -2.7 °C 1016.8 hPa Calm     76% 0 mm 0 W/m2
01:44 1.1 °C -2.7 °C 1016.8 hPa Calm     76% 0 mm 0 W/m2
01:49 1.1 °C -2.7 °C 1017.2 hPa Calm     76% 0 mm 0 W/m2
01:54 1.1 °C -2.8 °C 1017.2 hPa Calm     75.3% 0 mm 0 W/m2
01:59 1 °C -2.9 °C 1017.2 hPa Calm     75% 0 mm 0 W/m2
02:04 1 °C -2.6 °C 1017.5 hPa Calm     76.7% 0 mm 0 W/m2
02:09 0.9 °C -3 °C 1017.5 hPa Calm     75% 0 mm 0 W/m2
02:14 0.9 °C -3.1 °C 1017.2 hPa Calm     75% 0 mm 0 W/m2
02:19 0.8 °C -3.1 °C 1017.2 hPa Calm     75.3% 0 mm 0 W/m2
02:24 0.8 °C -2.9 °C 1017.2 hPa Calm     76% 0 mm 0 W/m2
02:29 0.7 °C -3 °C 1017.2 hPa Calm     76% 0 mm 0 W/m2
02:34 0.7 °C -3.1 °C 1017.2 hPa Calm     76% 0 mm 0 W/m2
02:39 0.7 °C -3.1 °C 1017.2 hPa Calm     76% 0 mm 0 W/m2
02:44 0.6 °C -3.2 °C 1017.2 hPa Calm     76% 0 mm 0 W/m2
02:49 0.5 °C -3.1 °C 1016.8 hPa Calm     76.7% 0 mm 0 W/m2
02:54 0.4 °C -3.1 °C 1016.8 hPa Calm     77% 0 mm 0 W/m2
02:59 0.3 °C -3.2 °C 1016.8 hPa NNW 0.2 km/h 3.2 km/h 77% 0 mm 0 W/m2
03:00 0.3 °C -3.3 °C 1016.8 hPa Calm   3.2 km/h 77% 0 mm 0 W/m2
03:30 -0.2 °C -3.2 °C 1016.5 hPa Calm     80% 0 mm 0 W/m2
04:04 -0.2 °C -3.1 °C 1016.5 hPa Calm     80.9% 0 mm 0 W/m2
04:09 -0.2 °C -3.1 °C 1016.5 hPa Calm     81% 0 mm 0 W/m2
04:14 -0.2 °C -3.1 °C 1016.5 hPa Calm     81% 0 mm 0 W/m2
04:19 -0.2 °C -3.1 °C 1016.5 hPa Calm     80.8% 0 mm 0 W/m2
04:24 -0.3 °C -3.2 °C 1016.8 hPa Calm     80.6% 0 mm 0 W/m2
04:29 -0.3 °C -3.3 °C 1016.8 hPa NNW 0.8 km/h 4.8 km/h 80.3% 0 mm 0 W/m2
04:34 -0.4 °C -3.4 °C 1016.8 hPa Calm   4.8 km/h 80.2% 0 mm 0 W/m2
04:39 -0.6 °C -3.4 °C 1016.8 hPa Calm     80.8% 0 mm 0 W/m2
04:44 -0.7 °C -3.5 °C 1016.8 hPa Calm     81.2% 0 mm 0 W/m2
04:49 -0.7 °C -3.4 °C 1016.8 hPa Calm     82% 0 mm 0 W/m2
04:54 -0.8 °C -3.4 °C 1016.8 hPa Calm     82% 0 mm 0 W/m2
04:59 -0.8 °C -3.4 °C 1017.2 hPa Calm     82% 0 mm 0 W/m2
05:04 -0.8 °C -3.4 °C 1017.2 hPa Calm     82% 0 mm 0 W/m2
05:09 -0.8 °C -3.4 °C 1017.2 hPa Calm     82.2% 0 mm 0 W/m2
05:14 -0.8 °C -3.3 °C 1017.2 hPa Calm     83% 0 mm 0 W/m2
05:19 -0.8 °C -3.3 °C 1017.2 hPa Calm   1.6 km/h 83% 0 mm 0 W/m2
05:24 -0.9 °C -3.6 °C 1017.2 hPa Calm   1.6 km/h 82% 0 mm 0 W/m2
05:29 -1.1 °C -3.7 °C 1017.2 hPa Calm   1.6 km/h 82.1% 0 mm 0 W/m2
05:34 -1.2 °C -3.7 °C 1017.2 hPa Calm   1.6 km/h 82.7% 0 mm 0 W/m2
05:39 -1.3 °C -3.8 °C 1017.5 hPa Calm     83% 0 mm 0 W/m2
05:44 -1.4 °C -3.9 °C 1017.5 hPa Calm     83.2% 0 mm 0 W/m2
05:49 -1.5 °C -3.8 °C 1017.5 hPa Calm     84% 0 mm 0 W/m2
05:54 -1.5 °C -3.8 °C 1017.2 hPa Calm     84.5% 0 mm 0 W/m2
05:59 -1.6 °C -3.8 °C 1017.2 hPa Calm     85% 0 mm 0 W/m2
06:04 -1.6 °C -3.8 °C 1017.2 hPa Calm     85% 0 mm 0 W/m2
06:09 -1.7 °C -3.9 °C 1017.2 hPa Calm     85% 0 mm 0 W/m2
06:14 -1.8 °C -3.6 °C 1017.2 hPa Calm     87.4% 0 mm 0 W/m2
06:19 -1.8 °C -3.9 °C 1017.5 hPa Calm     86% 0 mm 0 W/m2
06:24 -1.9 °C -3.9 °C 1017.2 hPa Calm     86% 0 mm 0 W/m2
06:29 -1.9 °C -3.9 °C 1017.5 hPa Calm     86% 0 mm 0 W/m2
06:33 -2 °C -4 °C 1017.2 hPa Calm     86% 0 mm 0 W/m2
06:39 -2 °C -3.9 °C 1017.2 hPa Calm     86.9% 0 mm 0 W/m2
06:44 -2 °C -3.9 °C 1017.2 hPa Calm     87% 0 mm 0 W/m2
06:49 -2.1 °C -3.9 °C 1017.2 hPa Calm     87% 0 mm 0 W/m2
06:54 -2.1 °C -4 °C 1017.2 hPa Calm     87% 0 mm 0 W/m2
06:59 -2.2 °C -4.1 °C 1017.2 hPa Calm     87% 0 mm 0 W/m2
07:04 -2.3 °C -4.1 °C 1017.2 hPa Calm     87% 0 mm 0 W/m2
07:09 -2.3 °C -4.2 °C 1017.2 hPa Calm     87% 0 mm 0 W/m2
07:14 -2.3 °C -4.2 °C 1017.5 hPa Calm     87% 0 mm 0 W/m2
07:19 -2.3 °C -4.2 °C 1017.5 hPa Calm     87% 0 mm 5 W/m2
07:24 -2.4 °C -4.2 °C 1017.5 hPa Calm     87% 0 mm 9 W/m2
07:29 -2.4 °C -4.1 °C 1017.5 hPa Calm     88% 0 mm 12 W/m2
07:34 -2.4 °C -4.1 °C 1017.5 hPa Calm     88% 0 mm 14 W/m2
07:39 -2.4 °C -4.1 °C 1017.5 hPa Calm     88% 0 mm 19 W/m2
07:44 -2.3 °C -4.1 °C 1017.5 hPa Calm     88% 0 mm 25 W/m2
07:49 -2.3 °C -3.9 °C 1017.5 hPa Calm     88.1% 0 mm 37 W/m2
07:54 -2.2 °C -3.7 °C 1017.5 hPa Calm     89% 0 mm 46 W/m2
07:59 -2 °C -3.6 °C 1017.5 hPa Calm     89% 0 mm 47 W/m2
08:09 -1.4 °C -2.8 °C 1017.2 hPa Calm     90% 0 mm 90 W/m2
08:14 -1 °C -2.6 °C 1017.2 hPa Calm     89.2% 0 mm 81 W/m2
08:19 -0.7 °C -2.4 °C 1017.2 hPa Calm     88.2% 0 mm 121 W/m2
08:24 -0.3 °C -2.2 °C 1017.2 hPa Calm     87.3% 0 mm 176 W/m2
08:29 0 °C -2.1 °C 1017.2 hPa Calm     86% 0 mm 176 W/m2
08:34 0.4 °C -1.8 °C 1017.2 hPa Calm     84.9% 0 mm 125 W/m2
08:39 0.7 °C -1.7 °C 1017.2 hPa Calm     83.5% 0 mm 76 W/m2
08:44 1 °C -1.8 °C 1017.5 hPa Calm     81.9% 0 mm 118 W/m2
08:49 1.2 °C -1.8 °C 1017.5 hPa Calm     80.3% 0 mm 132 W/m2
08:54 1.4 °C -1.7 °C 1017.5 hPa Calm     79.6% 0 mm 165 W/m2
08:59 1.7 °C -1.6 °C 1017.5 hPa Calm     79% 0 mm 162 W/m2
09:04 2 °C -1.4 °C 1017.8 hPa Calm     77.7% 0 mm 81 W/m2
09:09 2.2 °C -1.5 °C 1017.5 hPa Calm     76.3% 0 mm 132 W/m2
09:14 2.4 °C -1.4 °C 1017.5 hPa Calm     76% 0 mm 149 W/m2
09:19 2.6 °C -1.3 °C 1017.5 hPa Calm     75.8% 0 mm 139 W/m2
09:24 2.8 °C -1.3 °C 1017.5 hPa Calm     74.7% 0 mm 209 W/m2
09:29 2.9 °C -1.3 °C 1017.5 hPa Calm     73.6% 0 mm 209 W/m2
09:34 3.1 °C -1.5 °C 1017.8 hPa Calm     71.6% 0 mm 60 W/m2
09:39 3.3 °C -1.3 °C 1017.5 hPa Calm     71.7% 0 mm 76 W/m2
09:44 3.4 °C -1.4 °C 1017.5 hPa Calm     70.6% 0 mm 127 W/m2
09:49 3.6 °C -1.4 °C 1017.2 hPa Calm     70% 0 mm 123 W/m2
09:54 3.7 °C -1.5 °C 1017.2 hPa Calm     68.7% 0 mm 86 W/m2
09:59 3.7 °C -1.8 °C 1017.2 hPa NNW 0.2 km/h 3.2 km/h 67.4% 0 mm 121 W/m2
10:04 3.7 °C -1.7 °C 1017.2 hPa Calm   3.2 km/h 67.8% 0 mm 109 W/m2
10:09 3.7 °C -1.7 °C 1017.2 hPa Calm   1.6 km/h 68% 0 mm 105 W/m2
10:14 3.7 °C -1.7 °C 1016.8 hPa NE 1 km/h 4.8 km/h 68% 0 mm 218 W/m2
10:19 3.6 °C -1.7 °C 1016.8 hPa Calm   4.8 km/h 68% 0 mm 271 W/m2
10:24 3.7 °C -1.7 °C 1016.8 hPa Calm   4.8 km/h 68% 0 mm 243 W/m2
10:29 3.9 °C -1.5 °C 1016.5 hPa Calm   4.8 km/h 67.8% 0 mm 178 W/m2
10:34 4.1 °C -1.5 °C 1016.5 hPa Calm   4.8 km/h 67% 0 mm 179 W/m2
10:39 4.2 °C -1.4 °C 1016.5 hPa Calm     67% 0 mm 232 W/m2
10:44 4.3 °C -1.5 °C 1016.5 hPa Calm     65.9% 0 mm 232 W/m2
10:49 4.3 °C -1.7 °C 1016.5 hPa Calm     65.2% 0 mm 178 W/m2
10:54 4.2 °C -1.8 °C 1016.1 hPa Calm     65% 0 mm 176 W/m2
10:59 4.1 °C -1.9 °C 1016.1 hPa Calm   1.6 km/h 65% 0 mm 192 W/m2
11:04 4 °C -1.8 °C 1016.1 hPa Calm   1.6 km/h 65.8% 0 mm 165 W/m2
11:09 3.9 °C -1.8 °C 1016.1 hPa Calm     66% 0 mm 176 W/m2
11:14 3.9 °C -1.8 °C 1016.1 hPa SSE 1.4 km/h 8 km/h 66.4% 0 mm 181 W/m2
11:19 3.8 °C -1.7 °C 1016.1 hPa SSW 1.6 km/h 8 km/h 67% 0 mm 156 W/m2
11:24 3.8 °C -1.7 °C 1016.1 hPa SSW 0.8 km/h 8 km/h 67% 0 mm 146 W/m2
11:29 3.7 °C -1.8 °C 1015.8 hPa SSW 1.3 km/h 8 km/h 67% 0 mm 153 W/m2
11:34 3.7 °C -1.9 °C 1015.8 hPa SSW 0.2 km/h 8 km/h 67% 0 mm 144 W/m2
11:39 3.7 °C -1.7 °C 1015.5 hPa SSW 0.3 km/h 4.8 km/h 67.7% 0 mm 174 W/m2
11:44 3.7 °C -1.6 °C 1015.5 hPa Calm   4.8 km/h 68.5% 0 mm 186 W/m2
11:49 3.8 °C -1.3 °C 1015.5 hPa SSW 0.3 km/h 4.8 km/h 69% 0 mm 169 W/m2
11:54 3.9 °C -1.5 °C 1015.1 hPa Calm   4.8 km/h 67.8% 0 mm 192 W/m2
11:59 4 °C -1.7 °C 1014.8 hPa Calm   4.8 km/h 66.5% 0 mm 211 W/m2
12:09 4.2 °C -1.6 °C 1014.8 hPa Calm     66% 0 mm 188 W/m2
12:14 4.3 °C -1.7 °C 1014.4 hPa Calm   3.2 km/h 65.2% 0 mm 178 W/m2
12:19 4.3 °C -1.8 °C 1014.1 hPa SSW 0.2 km/h 3.2 km/h 64.2% 0 mm 183 W/m2
12:24 4.2 °C -2.1 °C 1014.1 hPa South 2.6 km/h 9.7 km/h 63.4% 0 mm 181 W/m2
12:29 4.1 °C -2.1 °C 1014.1 hPa South 1 km/h 9.7 km/h 64% 0 mm 193 W/m2
12:34 4.1 °C -1.9 °C 1014.4 hPa SSW 1.9 km/h 11.3 km/h 65% 0 mm 178 W/m2
12:39 4.1 °C -2.1 °C 1014.4 hPa SSW 0.5 km/h 11.3 km/h 64% 0 mm 139 W/m2
12:44 4.1 °C -2.1 °C 1014.1 hPa SSW 1 km/h 11.3 km/h 64% 0 mm 137 W/m2
12:49 4 °C -2.2 °C 1014.1 hPa SSW 3.2 km/h 11.3 km/h 64% 0 mm 130 W/m2
12:54 4 °C -2.1 °C 1014.1 hPa SW 2.4 km/h 11.3 km/h 64.7% 0 mm 132 W/m2
12:59 4 °C -2.1 °C 1014.1 hPa SW 0.6 km/h 11.3 km/h 64.2% 0 mm 130 W/m2
13:04 4.1 °C -1.9 °C 1013.8 hPa SW 1.1 km/h 11.3 km/h 65% 0 mm 135 W/m2
13:09 4.1 °C -1.9 °C 1013.8 hPa SW 1.6 km/h 9.7 km/h 64.8% 0 mm 146 W/m2
13:14 4.1 °C -2 °C 1013.8 hPa SW 3.4 km/h 9.7 km/h 64.6% 0 mm 139 W/m2
13:19 4.1 °C -1.9 °C 1013.8 hPa SW 2.4 km/h 9.7 km/h 65% 0 mm 135 W/m2
13:24 4.1 °C -1.9 °C 1013.8 hPa SW 2.1 km/h 9.7 km/h 65% 0 mm 130 W/m2
13:29 4.2 °C -1.9 °C 1013.8 hPa SW 1.1 km/h 9.7 km/h 64.3% 0 mm 113 W/m2
13:34 4.2 °C -1.9 °C 1013.8 hPa SW 2.4 km/h 14.5 km/h 64.3% 0 mm 100 W/m2
13:39 4.2 °C -2 °C 1013.4 hPa SW 0.5 km/h 14.5 km/h 64% 0 mm 91 W/m2
13:44 4.2 °C -2 °C 1013.8 hPa SW 0.5 km/h 14.5 km/h 64% 0 mm 84 W/m2
13:49 4.2 °C -2 °C 1013.4 hPa Calm   14.5 km/h 64% 0 mm 81 W/m2
13:54 4.2 °C -2 °C 1013.4 hPa Calm   14.5 km/h 64% 0 mm 79 W/m2
13:59 4.2 °C -2.2 °C 1013.4 hPa Calm   14.5 km/h 63.4% 0 mm 77 W/m2
14:04 4.1 °C -2.1 °C 1013.4 hPa SW 0.2 km/h 14.5 km/h 63.8% 0 mm 72 W/m2
14:09 4.1 °C -2.1 °C 1013.4 hPa SW 0.5 km/h 4.8 km/h 64.1% 0 mm 67 W/m2
14:14 4.1 °C -2.1 °C 1013.4 hPa SW 1.8 km/h 8 km/h 64.3% 0 mm 62 W/m2
14:19 4.1 °C -2.2 °C 1013.4 hPa SW 0.5 km/h 8 km/h 63.6% 0 mm 54 W/m2
14:24 4 °C -2.2 °C 1013.4 hPa SW 0.3 km/h 8 km/h 63.9% 0 mm 49 W/m2
14:29 3.9 °C -2.2 °C 1013.1 hPa Calm   8 km/h 64% 0 mm 51 W/m2
14:34 3.9 °C -2.2 °C 1013.1 hPa SW 0.2 km/h 8 km/h 64.5% 0 mm 44 W/m2
14:39 3.9 °C -2.3 °C 1013.1 hPa SW 0.5 km/h 4.8 km/h 64% 0 mm 42 W/m2
14:44 3.9 °C -2.3 °C 1013.1 hPa SW 0.6 km/h 9.7 km/h 64% 0 mm 40 W/m2
14:49 3.8 °C -2.2 °C 1013.1 hPa SW 0.3 km/h 9.7 km/h 64.5% 0 mm 39 W/m2
14:54 3.8 °C -2.2 °C 1013.4 hPa Calm   9.7 km/h 64.8% 0 mm 33 W/m2
14:59 3.8 °C -2.2 °C 1013.4 hPa Calm   9.7 km/h 65% 0 mm 33 W/m2
15:04 3.8 °C -2.2 °C 1013.4 hPa SW 0.6 km/h 9.7 km/h 65% 0 mm 39 W/m2
15:09 3.8 °C -2.2 °C 1013.4 hPa SW 0.3 km/h 4.8 km/h 65% 0 mm 40 W/m2
15:13 3.8 °C -2.2 °C 1013.4 hPa Calm   4.8 km/h 65% 0 mm 33 W/m2
15:19 3.8 °C -2.2 °C 1013.1 hPa Calm   4.8 km/h 65% 0 mm 30 W/m2
15:24 3.8 °C -2.1 °C 1013.1 hPa SW 0.2 km/h 4.8 km/h 65.3% 0 mm 21 W/m2
15:29 3.8 °C -2.1 °C 1013.1 hPa SW 0.6 km/h 4.8 km/h 65.7% 0 mm 21 W/m2
15:34 3.7 °C -2.2 °C 1013.1 hPa Calm   4.8 km/h 65% 0 mm 23 W/m2
15:39 3.7 °C -2.2 °C 1012.8 hPa SW 1.1 km/h 6.4 km/h 65.4% 0 mm 25 W/m2
15:44 3.7 °C -2.1 °C 1013.1 hPa SW 0.2 km/h 6.4 km/h 66% 0 mm 26 W/m2
15:49 3.7 °C -2.1 °C 1013.1 hPa Calm   6.4 km/h 66% 0 mm 32 W/m2
15:54 3.7 °C -2 °C 1013.1 hPa Calm   6.4 km/h 66.4% 0 mm 28 W/m2
15:59 3.7 °C -2.1 °C 1012.8 hPa SW 0.6 km/h 6.4 km/h 66% 0 mm 30 W/m2
16:00 3.7 °C -2.1 °C 1012.8 hPa Calm   6.4 km/h 66% 0 mm 28 W/m2
16:09 3.7 °C -1.9 °C 1012.8 hPa Calm   3.2 km/h 66.6% 0 mm 32 W/m2
16:14 3.7 °C -1.9 °C 1012.8 hPa SW 0.2 km/h 4.8 km/h 67% 0 mm 26 W/m2
16:19 3.7 °C -1.9 °C 1012.8 hPa SW 0.5 km/h 4.8 km/h 67.1% 0 mm 19 W/m2
16:24 3.7 °C -1.7 °C 1012.8 hPa SW 0.2 km/h 4.8 km/h 68% 0 mm 12 W/m2
16:29 3.7 °C -1.6 °C 1012.4 hPa SW 1 km/h 6.4 km/h 68.7% 0 mm 9 W/m2
16:34 3.6 °C -1.6 °C 1012.4 hPa SW 1.3 km/h 6.4 km/h 69% 0 mm 7 W/m2
16:39 3.6 °C -1.6 °C 1012.4 hPa SW 0.3 km/h 4.8 km/h 69% 0 mm 5 W/m2
16:44 3.6 °C -1.6 °C 1012.8 hPa SW 0.3 km/h 6.4 km/h 69% 0 mm 0 W/m2
16:49 3.6 °C -1.6 °C 1012.8 hPa SW 0.2 km/h 6.4 km/h 69% 0 mm 0 W/m2
16:54 3.5 °C -1.7 °C 1012.8 hPa SW 0.2 km/h 6.4 km/h 69% 0 mm 0 W/m2
16:59 3.5 °C -1.7 °C 1012.8 hPa Calm   6.4 km/h 69% 0 mm 0 W/m2
17:04 3.5 °C -1.7 °C 1012.8 hPa Calm   6.4 km/h 69% 0 mm 0 W/m2
17:09 3.4 °C -1.7 °C 1012.8 hPa Calm     69% 0 mm 0 W/m2
17:14 3.4 °C -1.7 °C 1012.8 hPa SW 0.2 km/h 3.2 km/h 69.2% 0 mm 0 W/m2
17:19 3.4 °C -1.7 °C 1012.8 hPa SW 0.5 km/h 3.2 km/h 69.2% 0 mm 0 W/m2
17:24 3.3 °C -1.8 °C 1012.4 hPa Calm   3.2 km/h 69% 0 mm 0 W/m2
17:29 3.3 °C -1.8 °C 1012.4 hPa SW 0.3 km/h 4.8 km/h 69% 0 mm 0 W/m2
17:34 3.3 °C -2 °C 1012.4 hPa Calm   4.8 km/h 68.1% 0 mm 0 W/m2
17:39 3.3 °C -2.1 °C 1012.4 hPa SW 0.3 km/h 3.2 km/h 68.1% 0 mm 0 W/m2
17:44 3.3 °C -1.9 °C 1012.4 hPa Calm   3.2 km/h 68.9% 0 mm 0 W/m2
17:49 3.3 °C -1.8 °C 1012.4 hPa Calm   3.2 km/h 69% 0 mm 0 W/m2
17:54 3.3 °C -1.9 °C 1012.4 hPa Calm   3.2 km/h 68.5% 0 mm 0 W/m2
17:59 3.3 °C -2.1 °C 1012.4 hPa Calm   3.2 km/h 68% 0 mm 0 W/m2
18:04 3.2 °C -2.1 °C 1012.1 hPa SW 0.2 km/h 3.2 km/h 68% 0 mm 0 W/m2
18:09 3.2 °C -2.1 °C 1012.1 hPa Calm   1.6 km/h 68% 0 mm 0 W/m2
18:14 3.2 °C -2.2 °C 1012.1 hPa Calm   1.6 km/h 68.1% 0 mm 0 W/m2
18:19 3.2 °C -1.9 °C 1012.1 hPa Calm   1.6 km/h 69% 0 mm 0 W/m2
18:24 3.2 °C -2 °C 1012.1 hPa Calm   1.6 km/h 69% 0 mm 0 W/m2
18:29 3.1 °C -2 °C 1012.1 hPa Calm   1.6 km/h 69% 0 mm 0 W/m2
18:34 3.1 °C -2 °C 1012.1 hPa Calm   1.6 km/h 69.1% 0 mm 0 W/m2
18:39 3.1 °C -1.9 °C 1012.1 hPa Calm     70% 0 mm 0 W/m2
18:44 3 °C -1.9 °C 1012.4 hPa Calm     70% 0 mm 0 W/m2
18:49 3 °C -1.9 °C 1012.4 hPa Calm     70% 0 mm 0 W/m2
18:54 2.9 °C -1.9 °C 1012.4 hPa Calm     70.5% 0 mm 0 W/m2
18:59 2.9 °C -1.8 °C 1012.4 hPa Calm     71% 0 mm 0 W/m2
19:04 2.9 °C -1.8 °C 1012.4 hPa Calm   3.2 km/h 71% 0 mm 0 W/m2
19:09 2.9 °C -1.8 °C 1012.4 hPa Calm   3.2 km/h 71% 0 mm 0 W/m2
19:14 3 °C -1.7 °C 1012.4 hPa Calm   3.2 km/h 71% 0 mm 0 W/m2
19:19 3 °C -1.7 °C 1012.4 hPa Calm   3.2 km/h 71% 0 mm 0 W/m2
19:24 2.9 °C -1.8 °C 1012.4 hPa Calm   3.2 km/h 71% 0 mm 0 W/m2
19:29 2.9 °C -1.8 °C 1012.4 hPa Calm   3.2 km/h 71% 0 mm 0 W/m2
19:34 2.9 °C -1.8 °C 1012.1 hPa Calm   3.2 km/h 71% 0 mm 0 W/m2
19:39 2.9 °C -1.8 °C 1012.1 hPa Calm     71% 0 mm 0 W/m2
19:44 2.9 °C -1.8 °C 1012.4 hPa Calm     71% 0 mm 0 W/m2
19:49 2.9 °C -1.8 °C 1012.1 hPa Calm     71% 0 mm 0 W/m2
19:54 2.9 °C -1.7 °C 1012.1 hPa Calm   1.6 km/h 71.4% 0 mm 0 W/m2
19:59 2.9 °C -1.6 °C 1012.1 hPa Calm   1.6 km/h 72% 0 mm 0 W/m2
20:00 2.9 °C -1.7 °C 1012.1 hPa Calm   1.6 km/h 72% 0 mm 0 W/m2
20:09 2.9 °C -1.7 °C 1012.1 hPa Calm     72% 0 mm 0 W/m2
20:14 2.8 °C -1.7 °C 1012.1 hPa Calm     72% 0 mm 0 W/m2
20:19 2.8 °C -1.7 °C 1012.1 hPa Calm     72% 0 mm 0 W/m2
20:23 2.8 °C -1.7 °C 1012.1 hPa Calm     72.5% 0 mm 0 W/m2
20:28 2.7 °C -1.7 °C 1012.1 hPa Calm     73% 0 mm 0 W/m2
20:30 2.7 °C -1.7 °C 1012.1 hPa Calm   3.2 km/h 73% 0 mm 0 W/m2
21:00 2.4 °C -1.7 °C 1012.1 hPa Calm     74% 0 mm 0 W/m2
21:30 2.4 °C -1.8 °C 1011.7 hPa Calm   3.2 km/h 74% 0 mm 0 W/m2
22:00 2.1 °C -1.7 °C 1011.4 hPa Calm     76% 0 mm 0 W/m2
22:30 1.9 °C -1.7 °C 1011.7 hPa Calm     77% 0 mm 0 W/m2
23:04 1.9 °C -1.7 °C 1011.7 hPa Calm     77% 0 mm 0 W/m2
23:09 1.9 °C -1.7 °C 1011.4 hPa Calm     77% 0 mm 0 W/m2
23:14 1.8 °C -1.8 °C 1011.4 hPa Calm     77% 0 mm 0 W/m2
23:19 1.8 °C -1.8 °C 1011.4 hPa Calm     77% 0 mm 0 W/m2
23:24 1.8 °C -1.8 °C 1011.4 hPa Calm     77% 0 mm 0 W/m2
23:29 1.8 °C -1.8 °C 1011.4 hPa Calm     77% 0 mm 0 W/m2
23:34 1.8 °C -1.8 °C 1011.4 hPa Calm     77% 0 mm 0 W/m2
23:39 1.8 °C -1.8 °C 1011.1 hPa Calm     77% 0 mm 0 W/m2
23:44 1.8 °C -1.8 °C 1011.1 hPa Calm     77% 0 mm 0 W/m2
23:49 1.8 °C -1.8 °C 1011.1 hPa Calm     77% 0 mm 0 W/m2
23:54 1.8 °C -1.8 °C 1011.1 hPa Calm     77% 0 mm 0 W/m2
23:59 1.8 °C -1.8 °C 1011.1 hPa Calm     77% 0 mm 0 W/m2
Hartford County Weather
Compliments of Weather Underground - 2 mb